MOL Celebration — C6WW7 — position and weather

sailwx.info

Track history (hours):
 
Tides and Currents Weather Stations Pressure Air Temp Water Temp Dewpoint Dewpoint Depression Visibility Wind Speed Wind Dir Waves Ship Positions

MOL Celebration

Last reported at 2017-Jun-25 19:25 UTC. Time now 2017-Jun-28 03:40 UTC.
Position N 40°39' W 128°53'.

Length 316 m; draft 13.8 m.

Type: Ship (hazmat cat D). MMSI: 309901000.

Date/timePositionNaut miles runAvg speedWind from/ knotsBaromVisibWave heightAir tempDewpointWater temp
2017-Jun-25 19:25N 40°39' W 128°53'2519.0
2017-Jun-25 18:06N 40°27' W 128°25'218.9
2017-Jun-25 17:59N 40°26' W 128°22'1018.7
2017-Jun-25 17:28N 40°21' W 128°11'1218.9
2017-Jun-25 16:51N 40°15' W 127°58'719.0
2017-Jun-25 16:30N 40°11' W 127°51'11418.8
2017-Jun-25 10:28N 39°14' W 125°43'918.9
2017-Jun-25 10:00N 39°10' W 125°33'1019.0
2017-Jun-25 09:27N 39°05' W 125°22'1019.0
2017-Jun-25 08:57N 38°60' W 125°11'1118.8
2017-Jun-25 08:23N 38°54' W 124°59'818.9
2017-Jun-25 07:58N 38°50' W 124°50'918.8
2017-Jun-25 07:30N 38°46' W 124°41'1019.1
2017-Jun-25 07:00N 38°41' W 124°30'1019.1
2017-Jun-25 06:30N 38°36' W 124°20'1019.4
2017-Jun-25 06:00N 38°32' W 124°09'1019.6
2017-Jun-25 05:30N 38°27' W 123°58'1019.7
2017-Jun-25 05:00N 38°22' W 123°47'1019.5
2017-Jun-25 04:30N 38°17' W 123°36'918.0
2017-Jun-25 04:00N 38°12' W 123°27'612.7
2017-Jun-25 03:30N 38°09' W 123°20'5 9.7
2017-Jun-25 03:00N 38°05' W 123°16'5 9.9
2017-Jun-25 02:31N 38°01' W 123°12'5 9.8
2017-Jun-25 02:01N 37°58' W 123°07'5 9.9
2017-Jun-25 01:30N 37°55' W 123°02'5 9.9
2017-Jun-25 01:01N 37°53' W 122°56'5 9.9
2017-Jun-25 00:30N 37°51' W 122°50'5 9.9
2017-Jun-25 00:01N 37°48' W 122°45'5 9.8
2017-Jun-24 23:31N 37°44' W 122°42'5 9.1
2017-Jun-24 23:01N 37°46' W 122°36'713.7
2017-Jun-24 22:30N 37°49' W 122°28'4 8.5
2017-Jun-24 22:01N 37°49' W 122°23'3 5.7
2017-Jun-24 21:30N 37°49' W 122°20'0 0.4
2017-Jun-24 21:00N 37°49' W 122°20'0 0.0
2017-Jun-24 20:30N 37°49' W 122°20'0 0.0
2017-Jun-24 20:00N 37°49' W 122°20'0 0.1
2017-Jun-24 19:30N 37°49' W 122°20'0 0.1
2017-Jun-24 19:00N 37°49' W 122°20'0 0.0
2017-Jun-24 18:30N 37°49' W 122°20'0 0.0
2017-Jun-24 18:00N 37°49' W 122°20'0 0.0
2017-Jun-24 17:30N 37°49' W 122°20'0 0.0
2017-Jun-24 17:00N 37°49' W 122°20'0 0.0
2017-Jun-24 16:30N 37°49' W 122°20'0 0.0
2017-Jun-24 16:00N 37°49' W 122°20'0 0.0
2017-Jun-24 15:30N 37°49' W 122°20'0 0.0
2017-Jun-24 15:00N 37°49' W 122°20'0 0.0
2017-Jun-24 14:00N 37°49' W 122°20'0 0.0
2017-Jun-24 13:30N 37°49' W 122°20'0 0.0
2017-Jun-24 13:00N 37°49' W 122°20'0 0.0
2017-Jun-24 12:30N 37°49' W 122°20'0 0.0
2017-Jun-24 12:00N 37°49' W 122°20'0 0.0
2017-Jun-24 11:30N 37°49' W 122°20'0 0.0
2017-Jun-24 11:00N 37°49' W 122°20'0 0.0
2017-Jun-24 10:30N 37°49' W 122°20'0 0.0
2017-Jun-24 10:00N 37°49' W 122°20'0 0.0
2017-Jun-24 09:30N 37°49' W 122°20'0 0.1
2017-Jun-24 09:00N 37°49' W 122°20'0 0.1
2017-Jun-24 08:30N 37°49' W 122°20'0 0.0
2017-Jun-24 08:00N 37°49' W 122°20'0 0.0
2017-Jun-24 07:30N 37°49' W 122°20'0 0.0
2017-Jun-24 07:00N 37°49' W 122°20'0 0.0
2017-Jun-24 06:30N 37°49' W 122°20'0 0.0
2017-Jun-24 06:00N 37°49' W 122°20'0 0.0
2017-Jun-24 05:30N 37°49' W 122°20'0 0.0
2017-Jun-24 05:00N 37°49' W 122°20'0 0.0
2017-Jun-24 04:30N 37°49' W 122°20'0 0.0
2017-Jun-24 04:00N 37°49' W 122°20'0 0.0
2017-Jun-24 03:30N 37°49' W 122°20'0 0.0
2017-Jun-24 03:00N 37°49' W 122°20'0 0.0
2017-Jun-24 02:30N 37°49' W 122°20'0 0.0
2017-Jun-24 02:00N 37°49' W 122°20'0 0.0
2017-Jun-24 01:30N 37°49' W 122°20'0 0.0
2017-Jun-24 01:00N 37°49' W 122°20'0 0.0
2017-Jun-24 00:30N 37°49' W 122°20'0 0.0
2017-Jun-24 00:00N 37°49' W 122°20'0 0.0
2017-Jun-23 23:30N 37°49' W 122°20'0 0.1
2017-Jun-23 23:00N 37°49' W 122°20'0 0.1
2017-Jun-23 22:30N 37°49' W 122°20'0 0.0
2017-Jun-23 21:57N 37°49' W 122°20'0 0.1
2017-Jun-23 21:30N 37°49' W 122°20'0 0.1
2017-Jun-23 21:00N 37°49' W 122°20'0 0.0
2017-Jun-23 20:30N 37°49' W 122°20'0 0.0
2017-Jun-23 20:00N 37°49' W 122°20'0 0.0
2017-Jun-23 19:30N 37°49' W 122°20'0 0.0
2017-Jun-23 19:00N 37°49' W 122°20'0 0.0
2017-Jun-23 18:30N 37°49' W 122°20'0 0.0
2017-Jun-23 18:00N 37°49' W 122°20'0 0.0
2017-Jun-23 17:30N 37°49' W 122°20'0 0.1
2017-Jun-23 17:00N 37°49' W 122°20'0 0.1
2017-Jun-23 16:30N 37°49' W 122°20'0 0.1
2017-Jun-23 16:00N 37°49' W 122°20'0 0.1
2017-Jun-23 15:30N 37°49' W 122°20'0 0.0
2017-Jun-23 15:00N 37°49' W 122°20'0 0.0
2017-Jun-23 14:00N 37°49' W 122°20'1 3.0
2017-Jun-23 13:31N 37°48' W 122°22'510.7
2017-Jun-23 13:00N 37°49' W 122°28'713.4
2017-Jun-23 12:30N 37°46' W 122°36'510.3
2017-Jun-23 12:00N 37°43' W 122°41'4 7.3
2017-Jun-23 11:30N 37°40' W 122°40'2 3.9
2017-Jun-23 11:00N 37°38' W 122°40'4 8.4
2017-Jun-23 10:30N 37°33' W 122°40'5 9.9
2017-Jun-23 10:00N 37°28' W 122°40'510.1
2017-Jun-23 09:30N 37°23' W 122°40'5 9.9
2017-Jun-23 09:00N 37°19' W 122°40'815.6
2017-Jun-23 08:30N 37°11' W 122°40'1121.0
2017-Jun-23 08:00N 37°00' W 122°40'1121.7
2017-Jun-23 07:30N 36°49' W 122°40'1121.5
2017-Jun-23 07:00N 36°39' W 122°38'1121.6
2017-Jun-23 06:30N 36°29' W 122°34'1121.6
2017-Jun-23 06:00N 36°18' W 122°29'1121.6
2017-Jun-23 05:30N 36°08' W 122°25'1121.9
2017-Jun-23 05:00N 35°58' W 122°20'1121.6
2017-Jun-23 04:30N 35°48' W 122°14'1121.6
2017-Jun-23 04:00N 35°39' W 122°07'1121.4
2017-Jun-23 03:30N 35°30' W 121°60'1121.2
2017-Jun-23 03:00N 35°22' W 121°52'1020.8
2017-Jun-23 02:30N 35°13' W 121°45'1121.1
2017-Jun-23 02:00N 35°05' W 121°37'1121.7
2017-Jun-23 01:30N 34°56' W 121°29'1122.0
2017-Jun-23 01:00N 34°47' W 121°21'1121.9
2017-Jun-23 00:30N 34°39' W 121°13'1020.1
2017-Jun-23 00:00N 34°32' W 121°04'917.2
2017-Jun-22 23:29N 34°28' W 120°54'511.1
2017-Jun-22 23:00N 34°26' W 120°48'5 9.4
2017-Jun-22 22:30N 34°24' W 120°43'5 9.7
2017-Jun-22 22:00N 34°23' W 120°37'5 9.9
2017-Jun-22 21:30N 34°22' W 120°31'612.7
2017-Jun-22 21:01N 34°20' W 120°24'918.6
2017-Jun-22 20:31N 34°18' W 120°13'1121.9
2017-Jun-22 20:00N 34°15' W 120°00'1121.8
2017-Jun-22 19:30N 34°12' W 119°48'1121.9
2017-Jun-22 19:01N 34°09' W 119°35'1121.5
2017-Jun-22 18:30N 34°06' W 119°22'1020.4
2017-Jun-22 18:00N 34°02' W 119°11'816.2
2017-Jun-22 17:30N 33°58' W 119°02'611.8
2017-Jun-22 17:00N 33°55' W 118°56'611.7
2017-Jun-22 16:30N 33°52' W 118°50'611.7
2017-Jun-22 16:00N 33°49' W 118°44'611.7
2017-Jun-22 15:30N 33°46' W 118°38'611.9
2017-Jun-22 15:00N 33°44' W 118°32'611.7
2017-Jun-22 14:30N 33°41' W 118°26'8 8.5
2017-Jun-22 13:30N 33°41' W 118°15'3 5.6
2017-Jun-22 13:00N 33°44' W 118°16'2 3.2
2017-Jun-22 12:30N 33°45' W 118°16'0 0.8
2017-Jun-22 12:00N 33°45' W 118°16'0 0.0
2017-Jun-22 11:29N 33°45' W 118°16'0 0.0
2017-Jun-22 10:59N 33°45' W 118°16'0 0.0
2017-Jun-22 10:28N 33°45' W 118°16'0 0.0
2017-Jun-22 09:59N 33°45' W 118°16'0 0.0
2017-Jun-22 09:29N 33°45' W 118°16'0 0.0
2017-Jun-22 08:59N 33°45' W 118°16'0 0.0
2017-Jun-22 08:29N 33°45' W 118°16'0 0.0
2017-Jun-22 07:59N 33°45' W 118°16'0 0.0
2017-Jun-22 07:29N 33°45' W 118°16'0 0.0
2017-Jun-22 06:59N 33°45' W 118°16'0 0.0
2017-Jun-22 06:29N 33°45' W 118°16'0 0.0
2017-Jun-22 05:59N 33°45' W 118°16'0 0.0
2017-Jun-22 05:29N 33°45' W 118°16'0 0.0
2017-Jun-22 04:59N 33°45' W 118°16'0 0.0
2017-Jun-22 04:29N 33°45' W 118°16'0 0.0
2017-Jun-22 03:58N 33°45' W 118°16'0 0.0
2017-Jun-22 03:29N 33°45' W 118°16'0 0.0
2017-Jun-22 02:56N 33°45' W 118°16'0 0.0
2017-Jun-22 02:29N 33°45' W 118°16'0 0.0
2017-Jun-22 01:59N 33°45' W 118°16'0 0.0
2017-Jun-22 01:29N 33°45' W 118°16'0 0.0
2017-Jun-22 00:58N 33°45' W 118°16'0 0.0
2017-Jun-22 00:29N 33°45' W 118°16'0 0.0
2017-Jun-21 23:59N 33°45' W 118°16'0 0.0
2017-Jun-21 23:29N 33°45' W 118°16'0 0.0
2017-Jun-21 22:59N 33°45' W 118°16'0 0.0
2017-Jun-21 22:28N 33°45' W 118°16'0 0.0
2017-Jun-21 21:56N 33°45' W 118°16'0 0.0
2017-Jun-21 21:28N 33°45' W 118°16'0 0.0
2017-Jun-21 20:58N 33°45' W 118°16'0 0.0
2017-Jun-21 20:28N 33°45' W 118°16'0 0.0
2017-Jun-21 19:58N 33°45' W 118°16'0 0.0
2017-Jun-21 19:29N 33°45' W 118°16'0 0.0
2017-Jun-21 18:58N 33°45' W 118°16'0 0.0
2017-Jun-21 18:28N 33°45' W 118°16'0 0.0
2017-Jun-21 17:58N 33°45' W 118°16'0 0.0
2017-Jun-21 17:29N 33°45' W 118°16'0 0.0
2017-Jun-21 16:58N 33°45' W 118°16'0 0.0
2017-Jun-21 16:29N 33°45' W 118°16'0 0.0
2017-Jun-21 15:58N 33°45' W 118°16'0 0.0
2017-Jun-21 15:28N 33°45' W 118°16'0 0.0
2017-Jun-21 14:58N 33°45' W 118°16'0 0.0
2017-Jun-21 14:29N 33°45' W 118°16'0 0.0
2017-Jun-21 13:28N 33°45' W 118°16'0 0.0
2017-Jun-21 12:58N 33°45' W 118°16'0 0.0
2017-Jun-21 12:28N 33°45' W 118°16'0 0.0
2017-Jun-21 11:58N 33°45' W 118°16'0 0.0
2017-Jun-21 11:28N 33°45' W 118°16'0 0.0
2017-Jun-21 10:58N 33°45' W 118°16'0 0.0
2017-Jun-21 10:29N 33°45' W 118°16'0 0.0
2017-Jun-21 09:59N 33°45' W 118°16'0 0.0
2017-Jun-21 09:28N 33°45' W 118°16'0 0.0
2017-Jun-21 08:58N 33°45' W 118°16'0 0.0
2017-Jun-21 08:28N 33°45' W 118°16'0 0.0
2017-Jun-21 07:58N 33°45' W 118°16'0 0.0
2017-Jun-21 07:28N 33°45' W 118°16'0 0.0
2017-Jun-21 06:58N 33°45' W 118°16'0 0.0
2017-Jun-21 06:28N 33°45' W 118°16'0 0.0
2017-Jun-21 05:58N 33°45' W 118°16'0 0.0
2017-Jun-21 05:28N 33°45' W 118°16'0 0.0
2017-Jun-21 04:58N 33°45' W 118°16'0 0.0
2017-Jun-21 04:25N 33°45' W 118°16'0 0.0
2017-Jun-21 03:58N 33°45' W 118°16'0 0.0
2017-Jun-21 03:28N 33°45' W 118°16'0 0.0
2017-Jun-21 02:58N 33°45' W 118°16'0 0.0
2017-Jun-21 02:28N 33°45' W 118°16'0 0.0
2017-Jun-21 01:58N 33°45' W 118°16'0 0.0
2017-Jun-21 01:28N 33°45' W 118°16'0 0.0
2017-Jun-21 00:55N 33°45' W 118°16'0 0.0
2017-Jun-21 00:28N 33°45' W 118°16'0 0.0
2017-Jun-20 23:58N 33°45' W 118°16'0 0.0
2017-Jun-20 23:28N 33°45' W 118°16'0 0.0
2017-Jun-20 22:58N 33°45' W 118°16'0 0.0
2017-Jun-20 22:28N 33°45' W 118°16'0 0.0
2017-Jun-20 21:58N 33°45' W 118°16'0 0.0
2017-Jun-20 21:28N 33°45' W 118°16'0 0.0
2017-Jun-20 20:58N 33°45' W 118°16'0 0.0
2017-Jun-20 20:28N 33°45' W 118°16'0 0.0
2017-Jun-20 19:58N 33°45' W 118°16'0 0.0
2017-Jun-20 19:28N 33°45' W 118°16'0 0.0
2017-Jun-20 18:58N 33°45' W 118°16'0 0.0
2017-Jun-20 18:28N 33°45' W 118°16'0 0.0
2017-Jun-20 17:58N 33°45' W 118°16'0 0.0
2017-Jun-20 17:28N 33°45' W 118°16'0 0.0
2017-Jun-20 16:58N 33°45' W 118°16'0 0.0
2017-Jun-20 16:28N 33°45' W 118°16'0 0.0
2017-Jun-20 15:58N 33°45' W 118°16'0 0.0
2017-Jun-20 15:28N 33°45' W 118°16'0 0.0
2017-Jun-20 14:58N 33°45' W 118°16'0 0.0
2017-Jun-20 13:58N 33°45' W 118°16'0 0.0
2017-Jun-20 13:25N 33°45' W 118°16'0 0.0
2017-Jun-20 12:58N 33°45' W 118°16'0 0.0
2017-Jun-20 12:28N 33°45' W 118°16'0 0.0
2017-Jun-20 11:58N 33°45' W 118°16'0 0.0
2017-Jun-20 11:28N 33°45' W 118°16'0 0.0
2017-Jun-20 10:55N 33°45' W 118°16'0 0.0
2017-Jun-20 10:28N 33°45' W 118°16'0 0.0
2017-Jun-20 09:58N 33°45' W 118°16'0 0.0
2017-Jun-20 09:28N 33°45' W 118°16'0 0.0
2017-Jun-20 08:58N 33°45' W 118°16'0 0.0
2017-Jun-20 08:28N 33°45' W 118°16'0 0.0
2017-Jun-20 07:58N 33°45' W 118°16'0 0.0
2017-Jun-20 07:28N 33°45' W 118°16'0 0.0
2017-Jun-20 06:58N 33°45' W 118°16'0 0.0
2017-Jun-20 06:28N 33°45' W 118°16'0 0.0
2017-Jun-20 05:58N 33°45' W 118°16'0 0.0
2017-Jun-20 05:28N 33°45' W 118°16'0 0.0
2017-Jun-20 04:58N 33°45' W 118°16'0 0.0
2017-Jun-20 04:28N 33°45' W 118°16'0 0.0
2017-Jun-20 03:58N 33°45' W 118°16'0 0.0
2017-Jun-20 03:28N 33°45' W 118°16'0 0.0
2017-Jun-20 02:58N 33°45' W 118°16'0 0.0
2017-Jun-20 02:28N 33°45' W 118°16'0 0.0
2017-Jun-20 01:58N 33°45' W 118°16'0 0.0
2017-Jun-20 01:28N 33°45' W 118°16'0 0.0
2017-Jun-20 00:58N 33°45' W 118°16'0 0.0
2017-Jun-20 00:28N 33°45' W 118°16'0 0.0
2017-Jun-19 23:58N 33°45' W 118°16'0 0.0
2017-Jun-19 23:28N 33°45' W 118°16'0 0.0
2017-Jun-19 22:58N 33°45' W 118°16'0 0.0
2017-Jun-19 22:28N 33°45' W 118°16'0 0.0
2017-Jun-19 21:58N 33°45' W 118°16'0 0.0
2017-Jun-19 21:28N 33°45' W 118°16'0 0.0
2017-Jun-19 20:58N 33°45' W 118°16'0 0.0
2017-Jun-19 20:28N 33°45' W 118°16'0 0.0
2017-Jun-19 19:58N 33°45' W 118°16'0 0.0
2017-Jun-19 19:28N 33°45' W 118°16'0 0.0
2017-Jun-19 18:58N 33°45' W 118°16'0 0.0
2017-Jun-19 18:28N 33°45' W 118°16'0 0.0
2017-Jun-19 17:58N 33°45' W 118°16'0 0.0
2017-Jun-19 17:28N 33°45' W 118°16'0 0.0
2017-Jun-19 16:58N 33°45' W 118°16'0 0.0
2017-Jun-19 16:28N 33°45' W 118°16'0 0.0
2017-Jun-19 15:58N 33°45' W 118°16'0 0.0
2017-Jun-19 15:28N 33°45' W 118°16'0 0.0
2017-Jun-19 14:58N 33°45' W 118°16'0 0.0
2017-Jun-19 14:28N 33°45' W 118°16'0 0.0
2017-Jun-19 13:25N 33°45' W 118°16'0 0.0
2017-Jun-19 12:49N 33°45' W 118°16'0 0.0
2017-Jun-19 12:28N 33°45' W 118°16'0 0.0
2017-Jun-19 11:58N 33°45' W 118°16'0 0.0
2017-Jun-19 11:28N 33°45' W 118°16'0 0.0
2017-Jun-19 10:40N 33°45' W 118°16'0 0.0
2017-Jun-19 10:28N 33°45' W 118°16'0 0.0
2017-Jun-19 09:58N 33°45' W 118°16'0 0.0
2017-Jun-19 09:28N 33°45' W 118°16'0 0.0
2017-Jun-19 08:58N 33°45' W 118°16'0 0.0
2017-Jun-19 08:28N 33°45' W 118°16'0 0.0
2017-Jun-19 07:58N 33°45' W 118°16'0 0.0
2017-Jun-19 07:28N 33°45' W 118°16'0 0.0
2017-Jun-19 06:58N 33°45' W 118°16'0 0.0
2017-Jun-19 06:25N 33°45' W 118°16'0 0.0
2017-Jun-19 05:58N 33°45' W 118°16'0 0.0
2017-Jun-19 05:28N 33°45' W 118°16'0 0.0
2017-Jun-19 04:58N 33°45' W 118°16'0 0.0
2017-Jun-19 04:28N 33°45' W 118°16'0 0.0
2017-Jun-19 03:58N 33°45' W 118°16'0 0.0
2017-Jun-19 03:28N 33°45' W 118°16'0 0.0
2017-Jun-19 02:58N 33°45' W 118°16'0 0.0
2017-Jun-19 02:28N 33°45' W 118°16'0 0.0
2017-Jun-19 01:58N 33°45' W 118°16'0 0.1
2017-Jun-19 01:30N 33°45' W 118°16'1 2.6
2017-Jun-19 01:00N 33°44' W 118°17'3 5.7
2017-Jun-19 00:30N 33°42' W 118°15'3 6.8
2017-Jun-19 00:00N 33°38' W 118°14'2 4.3
2017-Jun-18 23:30N 33°36' W 118°15'2 4.1
2017-Jun-18 23:00N 33°36' W 118°18'4 7.1
2017-Jun-18 22:30N 33°37' W 118°22'3 5.7
2017-Jun-18 22:00N 33°38' W 118°25'3 5.6
2017-Jun-18 21:30N 33°39' W 118°28'3 5.6
2017-Jun-18 21:00N 33°41' W 118°31'3 5.5
2017-Jun-18 20:30N 33°42' W 118°34'3 6.0
2017-Jun-18 20:00N 33°43' W 118°37'3 5.9
2017-Jun-18 19:30N 33°45' W 118°40'3 5.8
2017-Jun-18 19:00N 33°46' W 118°43'3 5.8
2017-Jun-18 18:30N 33°48' W 118°46'3 5.7
2017-Jun-18 18:00N 33°49' W 118°49'3 6.2
2017-Jun-18 17:30N 33°51' W 118°52'510.6
2017-Jun-18 17:00N 33°53' W 118°58'611.1
2017-Jun-18 16:30N 33°56' W 119°03'714.6
2017-Jun-18 16:01N 33°60' W 119°11'815.5
2017-Jun-18 15:30N 34°03' W 119°20'815.8
2017-Jun-18 15:00N 34°05' W 119°29'1515.5
2017-Jun-18 14:00N 34°09' W 119°47'815.2
2017-Jun-18 13:30N 34°11' W 119°55'815.1
2017-Jun-18 13:00N 34°13' W 120°04'815.6
2017-Jun-18 12:29N 34°16' W 120°14'815.7
2017-Jun-18 12:00N 34°18' W 120°23'714.1
2017-Jun-18 11:30N 34°19' W 120°31'510.0
2017-Jun-18 10:59N 34°21' W 120°37'5 9.7
2017-Jun-18 10:30N 34°22' W 120°42'5 9.9
2017-Jun-18 10:00N 34°23' W 120°48'5 9.8
2017-Jun-18 09:30N 34°25' W 120°54'713.9
2017-Jun-18 08:58N 34°26' W 121°03'815.8
2017-Jun-18 08:29N 34°28' W 121°12'815.7
2017-Jun-18 08:00N 34°29' W 121°21'816.1
2017-Jun-18 07:29N 34°31' W 121°30'815.4
2017-Jun-18 06:59N 34°33' W 121°40'715.1
2017-Jun-18 06:30N 34°34' W 121°48'815.3
2017-Jun-18 06:00N 34°36' W 121°57'815.6
2017-Jun-18 05:30N 34°37' W 122°07'815.8
2017-Jun-18 05:00N 34°39' W 122°16'815.9
2017-Jun-18 04:30N 34°41' W 122°25'916.4
2017-Jun-18 03:59N 34°42' W 122°36'816.2
2017-Jun-18 03:30N 34°44' W 122°45'815.7
2017-Jun-18 03:00N 34°45' W 122°54'815.0
2017-Jun-18 02:30N 34°47' W 123°03'815.1
2017-Jun-18 02:00N 34°49' W 123°12'815.0
2017-Jun-18 01:30N 34°50' W 123°21'815.0
2017-Jun-18 01:00N 34°52' W 123°30'815.1
2017-Jun-18 00:30N 34°53' W 123°39'815.1
2017-Jun-18 00:00N 34°55' W 123°48'610.4
2017-Jun-17 23:27N 34°56' W 123°55'4 7.7
2017-Jun-17 22:59N 34°57' W 123°59'3715.4
2017-Jun-17 20:37N 35°04' W 124°43'215.5
2017-Jun-17 20:30N 35°04' W 124°45'1115.7
2017-Jun-17 19:49N 35°07' W 124°58'515.8
2017-Jun-17 19:30N 35°08' W 125°04'815.7
2017-Jun-17 19:00N 35°09' W 125°13'815.6
2017-Jun-17 18:30N 35°11' W 125°23'815.8
2017-Jun-17 17:59N 35°13' W 125°32'  
Track history (hours):
 
Tides and Currents Weather Stations Pressure Air Temp Water Temp Dewpoint Dewpoint Depression Visibility Wind Speed Wind Dir Waves Ship Positions

MOL Celebration

Last reported at 2017-Jun-25 19:25 UTC. Time now 2017-Jun-28 03:40 UTC.
Position N 40°39' W 128°53'.

Length 316 m; draft 13.8 m.

Type: Ship (hazmat cat D). MMSI: 309901000.

Date/timePositionNaut miles runAvg speedWind from/ knotsBaromVisibWave heightAir tempDewpointWater temp
2017-Jun-25 19:25N 40°39' W 128°53'2519.0
2017-Jun-25 18:06N 40°27' W 128°25'218.9
2017-Jun-25 17:59N 40°26' W 128°22'1018.7
2017-Jun-25 17:28N 40°21' W 128°11'1218.9
2017-Jun-25 16:51N 40°15' W 127°58'719.0
2017-Jun-25 16:30N 40°11' W 127°51'11418.8
2017-Jun-25 10:28N 39°14' W 125°43'918.9
2017-Jun-25 10:00N 39°10' W 125°33'1019.0
2017-Jun-25 09:27N 39°05' W 125°22'1019.0
2017-Jun-25 08:57N 38°60' W 125°11'1118.8
2017-Jun-25 08:23N 38°54' W 124°59'818.9
2017-Jun-25 07:58N 38°50' W 124°50'918.8
2017-Jun-25 07:30N 38°46' W 124°41'1019.1
2017-Jun-25 07:00N 38°41' W 124°30'1019.1
2017-Jun-25 06:30N 38°36' W 124°20'1019.4
2017-Jun-25 06:00N 38°32' W 124°09'1019.6
2017-Jun-25 05:30N 38°27' W 123°58'1019.7
2017-Jun-25 05:00N 38°22' W 123°47'1019.5
2017-Jun-25 04:30N 38°17' W 123°36'918.0
2017-Jun-25 04:00N 38°12' W 123°27'612.7
2017-Jun-25 03:30N 38°09' W 123°20'5 9.7
2017-Jun-25 03:00N 38°05' W 123°16'5 9.9
2017-Jun-25 02:31N 38°01' W 123°12'5 9.8
2017-Jun-25 02:01N 37°58' W 123°07'5 9.9
2017-Jun-25 01:30N 37°55' W 123°02'5 9.9
2017-Jun-25 01:01N 37°53' W 122°56'5 9.9
2017-Jun-25 00:30N 37°51' W 122°50'5 9.9
2017-Jun-25 00:01N 37°48' W 122°45'5 9.8
2017-Jun-24 23:31N 37°44' W 122°42'5 9.1
2017-Jun-24 23:01N 37°46' W 122°36'713.7
2017-Jun-24 22:30N 37°49' W 122°28'4 8.5
2017-Jun-24 22:01N 37°49' W 122°23'3 5.7
2017-Jun-24 21:30N 37°49' W 122°20'0 0.4
2017-Jun-24 21:00N 37°49' W 122°20'0 0.0
2017-Jun-24 20:30N 37°49' W 122°20'0 0.0
2017-Jun-24 20:00N 37°49' W 122°20'0 0.1
2017-Jun-24 19:30N 37°49' W 122°20'0 0.1
2017-Jun-24 19:00N 37°49' W 122°20'0 0.0
2017-Jun-24 18:30N 37°49' W 122°20'0 0.0
2017-Jun-24 18:00N 37°49' W 122°20'0 0.0
2017-Jun-24 17:30N 37°49' W 122°20'0 0.0
2017-Jun-24 17:00N 37°49' W 122°20'0 0.0
2017-Jun-24 16:30N 37°49' W 122°20'0 0.0
2017-Jun-24 16:00N 37°49' W 122°20'0 0.0
2017-Jun-24 15:30N 37°49' W 122°20'0 0.0
2017-Jun-24 15:00N 37°49' W 122°20'0 0.0
2017-Jun-24 14:00N 37°49' W 122°20'0 0.0
2017-Jun-24 13:30N 37°49' W 122°20'0 0.0
2017-Jun-24 13:00N 37°49' W 122°20'0 0.0
2017-Jun-24 12:30N 37°49' W 122°20'0 0.0
2017-Jun-24 12:00N 37°49' W 122°20'0 0.0
2017-Jun-24 11:30N 37°49' W 122°20'0 0.0
2017-Jun-24 11:00N 37°49' W 122°20'0 0.0
2017-Jun-24 10:30N 37°49' W 122°20'0 0.0
2017-Jun-24 10:00N 37°49' W 122°20'0 0.0
2017-Jun-24 09:30N 37°49' W 122°20'0 0.1
2017-Jun-24 09:00N 37°49' W 122°20'0 0.1
2017-Jun-24 08:30N 37°49' W 122°20'0 0.0
2017-Jun-24 08:00N 37°49' W 122°20'0 0.0
2017-Jun-24 07:30N 37°49' W 122°20'0 0.0
2017-Jun-24 07:00N 37°49' W 122°20'0 0.0
2017-Jun-24 06:30N 37°49' W 122°20'0 0.0
2017-Jun-24 06:00N 37°49' W 122°20'0 0.0
2017-Jun-24 05:30N 37°49' W 122°20'0 0.0
2017-Jun-24 05:00N 37°49' W 122°20'0 0.0
2017-Jun-24 04:30N 37°49' W 122°20'0 0.0
2017-Jun-24 04:00N 37°49' W 122°20'0 0.0
2017-Jun-24 03:30N 37°49' W 122°20'0 0.0
2017-Jun-24 03:00N 37°49' W 122°20'0 0.0
2017-Jun-24 02:30N 37°49' W 122°20'0 0.0
2017-Jun-24 02:00N 37°49' W 122°20'0 0.0
2017-Jun-24 01:30N 37°49' W 122°20'0 0.0
2017-Jun-24 01:00N 37°49' W 122°20'0 0.0
2017-Jun-24 00:30N 37°49' W 122°20'0 0.0
2017-Jun-24 00:00N 37°49' W 122°20'0 0.0
2017-Jun-23 23:30N 37°49' W 122°20'0 0.1
2017-Jun-23 23:00N 37°49' W 122°20'0 0.1
2017-Jun-23 22:30N 37°49' W 122°20'0 0.0
2017-Jun-23 21:57N 37°49' W 122°20'0 0.1
2017-Jun-23 21:30N 37°49' W 122°20'0 0.1
2017-Jun-23 21:00N 37°49' W 122°20'0 0.0
2017-Jun-23 20:30N 37°49' W 122°20'0 0.0
2017-Jun-23 20:00N 37°49' W 122°20'0 0.0
2017-Jun-23 19:30N 37°49' W 122°20'0 0.0
2017-Jun-23 19:00N 37°49' W 122°20'0 0.0
2017-Jun-23 18:30N 37°49' W 122°20'0 0.0
2017-Jun-23 18:00N 37°49' W 122°20'0 0.0
2017-Jun-23 17:30N 37°49' W 122°20'0 0.1
2017-Jun-23 17:00N 37°49' W 122°20'0 0.1
2017-Jun-23 16:30N 37°49' W 122°20'0 0.1
2017-Jun-23 16:00N 37°49' W 122°20'0 0.1
2017-Jun-23 15:30N 37°49' W 122°20'0 0.0
2017-Jun-23 15:00N 37°49' W 122°20'0 0.0
2017-Jun-23 14:00N 37°49' W 122°20'1 3.0
2017-Jun-23 13:31N 37°48' W 122°22'510.7
2017-Jun-23 13:00N 37°49' W 122°28'713.4
2017-Jun-23 12:30N 37°46' W 122°36'510.3
2017-Jun-23 12:00N 37°43' W 122°41'4 7.3
2017-Jun-23 11:30N 37°40' W 122°40'2 3.9
2017-Jun-23 11:00N 37°38' W 122°40'4 8.4
2017-Jun-23 10:30N 37°33' W 122°40'5 9.9
2017-Jun-23 10:00N 37°28' W 122°40'510.1
2017-Jun-23 09:30N 37°23' W 122°40'5 9.9
2017-Jun-23 09:00N 37°19' W 122°40'815.6
2017-Jun-23 08:30N 37°11' W 122°40'1121.0
2017-Jun-23 08:00N 37°00' W 122°40'1121.7
2017-Jun-23 07:30N 36°49' W 122°40'1121.5
2017-Jun-23 07:00N 36°39' W 122°38'1121.6
2017-Jun-23 06:30N 36°29' W 122°34'1121.6
2017-Jun-23 06:00N 36°18' W 122°29'1121.6
2017-Jun-23 05:30N 36°08' W 122°25'1121.9
2017-Jun-23 05:00N 35°58' W 122°20'1121.6
2017-Jun-23 04:30N 35°48' W 122°14'1121.6
2017-Jun-23 04:00N 35°39' W 122°07'1121.4
2017-Jun-23 03:30N 35°30' W 121°60'1121.2
2017-Jun-23 03:00N 35°22' W 121°52'1020.8
2017-Jun-23 02:30N 35°13' W 121°45'1121.1
2017-Jun-23 02:00N 35°05' W 121°37'1121.7
2017-Jun-23 01:30N 34°56' W 121°29'1122.0
2017-Jun-23 01:00N 34°47' W 121°21'1121.9
2017-Jun-23 00:30N 34°39' W 121°13'1020.1
2017-Jun-23 00:00N 34°32' W 121°04'917.2
2017-Jun-22 23:29N 34°28' W 120°54'511.1
2017-Jun-22 23:00N 34°26' W 120°48'5 9.4
2017-Jun-22 22:30N 34°24' W 120°43'5 9.7
2017-Jun-22 22:00N 34°23' W 120°37'5 9.9
2017-Jun-22 21:30N 34°22' W 120°31'612.7
2017-Jun-22 21:01N 34°20' W 120°24'918.6
2017-Jun-22 20:31N 34°18' W 120°13'1121.9
2017-Jun-22 20:00N 34°15' W 120°00'1121.8
2017-Jun-22 19:30N 34°12' W 119°48'1121.9
2017-Jun-22 19:01N 34°09' W 119°35'1121.5
2017-Jun-22 18:30N 34°06' W 119°22'1020.4
2017-Jun-22 18:00N 34°02' W 119°11'816.2
2017-Jun-22 17:30N 33°58' W 119°02'611.8
2017-Jun-22 17:00N 33°55' W 118°56'611.7
2017-Jun-22 16:30N 33°52' W 118°50'611.7
2017-Jun-22 16:00N 33°49' W 118°44'611.7
2017-Jun-22 15:30N 33°46' W 118°38'611.9
2017-Jun-22 15:00N 33°44' W 118°32'611.7
2017-Jun-22 14:30N 33°41' W 118°26'8 8.5
2017-Jun-22 13:30N 33°41' W 118°15'3 5.6
2017-Jun-22 13:00N 33°44' W 118°16'2 3.2
2017-Jun-22 12:30N 33°45' W 118°16'0 0.8
2017-Jun-22 12:00N 33°45' W 118°16'0 0.0
2017-Jun-22 11:29N 33°45' W 118°16'0 0.0
2017-Jun-22 10:59N 33°45' W 118°16'0 0.0
2017-Jun-22 10:28N 33°45' W 118°16'0 0.0
2017-Jun-22 09:59N 33°45' W 118°16'0 0.0
2017-Jun-22 09:29N 33°45' W 118°16'0 0.0
2017-Jun-22 08:59N 33°45' W 118°16'0 0.0
2017-Jun-22 08:29N 33°45' W 118°16'0 0.0
2017-Jun-22 07:59N 33°45' W 118°16'0 0.0
2017-Jun-22 07:29N 33°45' W 118°16'0 0.0
2017-Jun-22 06:59N 33°45' W 118°16'0 0.0
2017-Jun-22 06:29N 33°45' W 118°16'0 0.0
2017-Jun-22 05:59N 33°45' W 118°16'0 0.0
2017-Jun-22 05:29N 33°45' W 118°16'0 0.0
2017-Jun-22 04:59N 33°45' W 118°16'0 0.0
2017-Jun-22 04:29N 33°45' W 118°16'0 0.0
2017-Jun-22 03:58N 33°45' W 118°16'0 0.0
2017-Jun-22 03:29N 33°45' W 118°16'0 0.0
2017-Jun-22 02:56N 33°45' W 118°16'0 0.0
2017-Jun-22 02:29N 33°45' W 118°16'0 0.0
2017-Jun-22 01:59N 33°45' W 118°16'0 0.0
2017-Jun-22 01:29N 33°45' W 118°16'0 0.0
2017-Jun-22 00:58N 33°45' W 118°16'0 0.0
2017-Jun-22 00:29N 33°45' W 118°16'0 0.0
2017-Jun-21 23:59N 33°45' W 118°16'0 0.0
2017-Jun-21 23:29N 33°45' W 118°16'0 0.0
2017-Jun-21 22:59N 33°45' W 118°16'0 0.0
2017-Jun-21 22:28N 33°45' W 118°16'0 0.0
2017-Jun-21 21:56N 33°45' W 118°16'0 0.0
2017-Jun-21 21:28N 33°45' W 118°16'0 0.0
2017-Jun-21 20:58N 33°45' W 118°16'0 0.0
2017-Jun-21 20:28N 33°45' W 118°16'0 0.0
2017-Jun-21 19:58N 33°45' W 118°16'0 0.0
2017-Jun-21 19:29N 33°45' W 118°16'0 0.0
2017-Jun-21 18:58N 33°45' W 118°16'0 0.0
2017-Jun-21 18:28N 33°45' W 118°16'0 0.0
2017-Jun-21 17:58N 33°45' W 118°16'0 0.0
2017-Jun-21 17:29N 33°45' W 118°16'0 0.0
2017-Jun-21 16:58N 33°45' W 118°16'0 0.0
2017-Jun-21 16:29N 33°45' W 118°16'0 0.0
2017-Jun-21 15:58N 33°45' W 118°16'0 0.0
2017-Jun-21 15:28N 33°45' W 118°16'0 0.0
2017-Jun-21 14:58N 33°45' W 118°16'0 0.0
2017-Jun-21 14:29N 33°45' W 118°16'0 0.0
2017-Jun-21 13:28N 33°45' W 118°16'0 0.0
2017-Jun-21 12:58N 33°45' W 118°16'0 0.0
2017-Jun-21 12:28N 33°45' W 118°16'0 0.0
2017-Jun-21 11:58N 33°45' W 118°16'0 0.0
2017-Jun-21 11:28N 33°45' W 118°16'0 0.0
2017-Jun-21 10:58N 33°45' W 118°16'0 0.0
2017-Jun-21 10:29N 33°45' W 118°16'0 0.0
2017-Jun-21 09:59N 33°45' W 118°16'0 0.0
2017-Jun-21 09:28N 33°45' W 118°16'0 0.0
2017-Jun-21 08:58N 33°45' W 118°16'0 0.0
2017-Jun-21 08:28N 33°45' W 118°16'0 0.0
2017-Jun-21 07:58N 33°45' W 118°16'0 0.0
2017-Jun-21 07:28N 33°45' W 118°16'0 0.0
2017-Jun-21 06:58N 33°45' W 118°16'0 0.0
2017-Jun-21 06:28N 33°45' W 118°16'0 0.0
2017-Jun-21 05:58N 33°45' W 118°16'0 0.0
2017-Jun-21 05:28N 33°45' W 118°16'0 0.0
2017-Jun-21 04:58N 33°45' W 118°16'0 0.0
2017-Jun-21 04:25N 33°45' W 118°16'0 0.0
2017-Jun-21 03:58N 33°45' W 118°16'0 0.0
2017-Jun-21 03:28N 33°45' W 118°16'0 0.0
2017-Jun-21 02:58N 33°45' W 118°16'0 0.0
2017-Jun-21 02:28N 33°45' W 118°16'0 0.0
2017-Jun-21 01:58N 33°45' W 118°16'0 0.0
2017-Jun-21 01:28N 33°45' W 118°16'0 0.0
2017-Jun-21 00:55N 33°45' W 118°16'0 0.0
2017-Jun-21 00:28N 33°45' W 118°16'0 0.0
2017-Jun-20 23:58N 33°45' W 118°16'0 0.0
2017-Jun-20 23:28N 33°45' W 118°16'0 0.0
2017-Jun-20 22:58N 33°45' W 118°16'0 0.0
2017-Jun-20 22:28N 33°45' W 118°16'0 0.0
2017-Jun-20 21:58N 33°45' W 118°16'0 0.0
2017-Jun-20 21:28N 33°45' W 118°16'0 0.0
2017-Jun-20 20:58N 33°45' W 118°16'0 0.0
2017-Jun-20 20:28N 33°45' W 118°16'0 0.0
2017-Jun-20 19:58N 33°45' W 118°16'0 0.0
2017-Jun-20 19:28N 33°45' W 118°16'0 0.0
2017-Jun-20 18:58N 33°45' W 118°16'0 0.0
2017-Jun-20 18:28N 33°45' W 118°16'0 0.0
2017-Jun-20 17:58N 33°45' W 118°16'0 0.0
2017-Jun-20 17:28N 33°45' W 118°16'0 0.0
2017-Jun-20 16:58N 33°45' W 118°16'0 0.0
2017-Jun-20 16:28N 33°45' W 118°16'0 0.0
2017-Jun-20 15:58N 33°45' W 118°16'0 0.0
2017-Jun-20 15:28N 33°45' W 118°16'0 0.0
2017-Jun-20 14:58N 33°45' W 118°16'0 0.0
2017-Jun-20 13:58N 33°45' W 118°16'0 0.0
2017-Jun-20 13:25N 33°45' W 118°16'0 0.0
2017-Jun-20 12:58N 33°45' W 118°16'0 0.0
2017-Jun-20 12:28N 33°45' W 118°16'0 0.0
2017-Jun-20 11:58N 33°45' W 118°16'0 0.0
2017-Jun-20 11:28N 33°45' W 118°16'0 0.0
2017-Jun-20 10:55N 33°45' W 118°16'0 0.0
2017-Jun-20 10:28N 33°45' W 118°16'0 0.0
2017-Jun-20 09:58N 33°45' W 118°16'0 0.0
2017-Jun-20 09:28N 33°45' W 118°16'0 0.0
2017-Jun-20 08:58N 33°45' W 118°16'0 0.0
2017-Jun-20 08:28N 33°45' W 118°16'0 0.0
2017-Jun-20 07:58N 33°45' W 118°16'0 0.0
2017-Jun-20 07:28N 33°45' W 118°16'0 0.0
2017-Jun-20 06:58N 33°45' W 118°16'0 0.0
2017-Jun-20 06:28N 33°45' W 118°16'0 0.0
2017-Jun-20 05:58N 33°45' W 118°16'0 0.0
2017-Jun-20 05:28N 33°45' W 118°16'0 0.0
2017-Jun-20 04:58N 33°45' W 118°16'0 0.0
2017-Jun-20 04:28N 33°45' W 118°16'0 0.0
2017-Jun-20 03:58N 33°45' W 118°16'0 0.0
2017-Jun-20 03:28N 33°45' W 118°16'0 0.0
2017-Jun-20 02:58N 33°45' W 118°16'0 0.0
2017-Jun-20 02:28N 33°45' W 118°16'0 0.0
2017-Jun-20 01:58N 33°45' W 118°16'0 0.0
2017-Jun-20 01:28N 33°45' W 118°16'0 0.0
2017-Jun-20 00:58N 33°45' W 118°16'0 0.0
2017-Jun-20 00:28N 33°45' W 118°16'0 0.0
2017-Jun-19 23:58N 33°45' W 118°16'0 0.0
2017-Jun-19 23:28N 33°45' W 118°16'0 0.0
2017-Jun-19 22:58N 33°45' W 118°16'0 0.0
2017-Jun-19 22:28N 33°45' W 118°16'0 0.0
2017-Jun-19 21:58N 33°45' W 118°16'0 0.0
2017-Jun-19 21:28N 33°45' W 118°16'0 0.0
2017-Jun-19 20:58N 33°45' W 118°16'0 0.0
2017-Jun-19 20:28N 33°45' W 118°16'0 0.0
2017-Jun-19 19:58N 33°45' W 118°16'0 0.0
2017-Jun-19 19:28N 33°45' W 118°16'0 0.0
2017-Jun-19 18:58N 33°45' W 118°16'0 0.0
2017-Jun-19 18:28N 33°45' W 118°16'0 0.0
2017-Jun-19 17:58N 33°45' W 118°16'0 0.0
2017-Jun-19 17:28N 33°45' W 118°16'0 0.0
2017-Jun-19 16:58N 33°45' W 118°16'0 0.0
2017-Jun-19 16:28N 33°45' W 118°16'0 0.0
2017-Jun-19 15:58N 33°45' W 118°16'0 0.0
2017-Jun-19 15:28N 33°45' W 118°16'0 0.0
2017-Jun-19 14:58N 33°45' W 118°16'0 0.0
2017-Jun-19 14:28N 33°45' W 118°16'0 0.0
2017-Jun-19 13:25N 33°45' W 118°16'0 0.0
2017-Jun-19 12:49N 33°45' W 118°16'0 0.0
2017-Jun-19 12:28N 33°45' W 118°16'0 0.0
2017-Jun-19 11:58N 33°45' W 118°16'0 0.0
2017-Jun-19 11:28N 33°45' W 118°16'0 0.0
2017-Jun-19 10:40N 33°45' W 118°16'0 0.0
2017-Jun-19 10:28N 33°45' W 118°16'0 0.0
2017-Jun-19 09:58N 33°45' W 118°16'0 0.0
2017-Jun-19 09:28N 33°45' W 118°16'0 0.0
2017-Jun-19 08:58N 33°45' W 118°16'0 0.0
2017-Jun-19 08:28N 33°45' W 118°16'0 0.0
2017-Jun-19 07:58N 33°45' W 118°16'0 0.0
2017-Jun-19 07:28N 33°45' W 118°16'0 0.0
2017-Jun-19 06:58N 33°45' W 118°16'0 0.0
2017-Jun-19 06:25N 33°45' W 118°16'0 0.0
2017-Jun-19 05:58N 33°45' W 118°16'0 0.0
2017-Jun-19 05:28N 33°45' W 118°16'0 0.0
2017-Jun-19 04:58N 33°45' W 118°16'0 0.0
2017-Jun-19 04:28N 33°45' W 118°16'0 0.0
2017-Jun-19 03:58N 33°45' W 118°16'0 0.0
2017-Jun-19 03:28N 33°45' W 118°16'0 0.0
2017-Jun-19 02:58N 33°45' W 118°16'0 0.0
2017-Jun-19 02:28N 33°45' W 118°16'0 0.0
2017-Jun-19 01:58N 33°45' W 118°16'0 0.1
2017-Jun-19 01:30N 33°45' W 118°16'1 2.6
2017-Jun-19 01:00N 33°44' W 118°17'3 5.7
2017-Jun-19 00:30N 33°42' W 118°15'3 6.8
2017-Jun-19 00:00N 33°38' W 118°14'2 4.3
2017-Jun-18 23:30N 33°36' W 118°15'2 4.1
2017-Jun-18 23:00N 33°36' W 118°18'4 7.1
2017-Jun-18 22:30N 33°37' W 118°22'3 5.7
2017-Jun-18 22:00N 33°38' W 118°25'3 5.6
2017-Jun-18 21:30N 33°39' W 118°28'3 5.6
2017-Jun-18 21:00N 33°41' W 118°31'3 5.5
2017-Jun-18 20:30N 33°42' W 118°34'3 6.0
2017-Jun-18 20:00N 33°43' W 118°37'3 5.9
2017-Jun-18 19:30N 33°45' W 118°40'3 5.8
2017-Jun-18 19:00N 33°46' W 118°43'3 5.8
2017-Jun-18 18:30N 33°48' W 118°46'3 5.7
2017-Jun-18 18:00N 33°49' W 118°49'3 6.2
2017-Jun-18 17:30N 33°51' W 118°52'510.6
2017-Jun-18 17:00N 33°53' W 118°58'611.1
2017-Jun-18 16:30N 33°56' W 119°03'714.6
2017-Jun-18 16:01N 33°60' W 119°11'815.5
2017-Jun-18 15:30N 34°03' W 119°20'815.8
2017-Jun-18 15:00N 34°05' W 119°29'1515.5
2017-Jun-18 14:00N 34°09' W 119°47'815.2
2017-Jun-18 13:30N 34°11' W 119°55'815.1
2017-Jun-18 13:00N 34°13' W 120°04'815.6
2017-Jun-18 12:29N 34°16' W 120°14'815.7
2017-Jun-18 12:00N 34°18' W 120°23'714.1
2017-Jun-18 11:30N 34°19' W 120°31'510.0
2017-Jun-18 10:59N 34°21' W 120°37'5 9.7
2017-Jun-18 10:30N 34°22' W 120°42'5 9.9
2017-Jun-18 10:00N 34°23' W 120°48'5 9.8
2017-Jun-18 09:30N 34°25' W 120°54'713.9
2017-Jun-18 08:58N 34°26' W 121°03'815.8
2017-Jun-18 08:29N 34°28' W 121°12'815.7
2017-Jun-18 08:00N 34°29' W 121°21'816.1
2017-Jun-18 07:29N 34°31' W 121°30'815.4
2017-Jun-18 06:59N 34°33' W 121°40'715.1
2017-Jun-18 06:30N 34°34' W 121°48'815.3
2017-Jun-18 06:00N 34°36' W 121°57'815.6
2017-Jun-18 05:30N 34°37' W 122°07'815.8
2017-Jun-18 05:00N 34°39' W 122°16'815.9
2017-Jun-18 04:30N 34°41' W 122°25'916.4
2017-Jun-18 03:59N 34°42' W 122°36'816.2
2017-Jun-18 03:30N 34°44' W 122°45'815.7
2017-Jun-18 03:00N 34°45' W 122°54'815.0
2017-Jun-18 02:30N 34°47' W 123°03'815.1
2017-Jun-18 02:00N 34°49' W 123°12'815.0
2017-Jun-18 01:30N 34°50' W 123°21'815.0
2017-Jun-18 01:00N 34°52' W 123°30'815.1
2017-Jun-18 00:30N 34°53' W 123°39'815.1
2017-Jun-18 00:00N 34°55' W 123°48'610.4
2017-Jun-17 23:27N 34°56' W 123°55'4 7.7
2017-Jun-17 22:59N 34°57' W 123°59'3715.4
2017-Jun-17 20:37N 35°04' W 124°43'215.5
2017-Jun-17 20:30N 35°04' W 124°45'1115.7
2017-Jun-17 19:49N 35°07' W 124°58'515.8
2017-Jun-17 19:30N 35°08' W 125°04'815.7
2017-Jun-17 19:00N 35°09' W 125°13'815.6
2017-Jun-17 18:30N 35°11' W 125°23'815.8
2017-Jun-17 17:59N 35°13' W 125°32'  

Dump ship's entire track history